createdAt,value
2019-06-26T00:00:03.804Z,15292.00
2019-06-26T00:01:03.790Z,15072.00
2019-06-26T00:02:03.782Z,14996.00
2019-06-26T00:03:03.788Z,14856.00
2019-06-26T00:04:03.775Z,14716.00
2019-06-26T00:05:03.774Z,14572.00
2019-06-26T00:06:03.766Z,14428.00
2019-06-26T00:07:03.756Z,14356.00
2019-06-26T00:08:03.756Z,14272.00
2019-06-26T00:09:03.752Z,14152.00
2019-06-26T00:10:03.741Z,14092.00
2019-06-26T00:11:03.737Z,13968.00
2019-06-26T00:12:03.730Z,13948.00
2019-06-26T00:13:03.723Z,13804.00
2019-06-26T00:14:03.703Z,13800.00
2019-06-26T00:15:03.699Z,13648.00
2019-06-26T00:16:03.699Z,13492.00
2019-06-26T00:17:03.700Z,13512.00
2019-06-26T00:18:03.691Z,13428.00
2019-06-26T00:19:03.679Z,13140.00
2019-06-26T00:20:03.679Z,12896.00
2019-06-26T00:21:03.684Z,12948.00
2019-06-26T00:22:03.668Z,12624.00
2019-06-26T00:23:03.653Z,12464.00
2019-06-26T00:24:03.654Z,12432.00
2019-06-26T00:25:03.650Z,12120.00
2019-06-26T00:26:03.647Z,11816.00
2019-06-26T00:27:03.644Z,11172.00
2019-06-26T00:28:03.635Z,10408.00
2019-06-26T00:29:03.631Z,9228.00
2019-06-26T00:30:03.625Z,8548.00
2019-06-26T00:31:03.621Z,7856.00
2019-06-26T00:32:03.618Z,7520.00
2019-06-26T00:33:03.601Z,7316.00
2019-06-26T00:34:03.607Z,7168.00
2019-06-26T00:35:03.593Z,6744.00
2019-06-26T00:36:03.599Z,6448.00
2019-06-26T00:37:03.582Z,6048.00
2019-06-26T00:38:03.586Z,5508.00
2019-06-26T00:39:03.568Z,5128.00
2019-06-26T00:40:03.565Z,4972.00
2019-06-26T00:41:03.564Z,4860.00
2019-06-26T00:42:03.556Z,4800.00
2019-06-26T00:43:03.556Z,4724.00
2019-06-26T00:44:03.541Z,4644.00
2019-06-26T00:45:03.544Z,4532.00
2019-06-26T00:46:03.541Z,4476.00
2019-06-26T00:47:03.527Z,4436.00
2019-06-26T00:48:03.532Z,4488.00
2019-06-26T00:49:03.519Z,4436.00
2019-06-26T00:50:03.512Z,4448.00
2019-06-26T00:51:03.501Z,4316.00
2019-06-26T00:52:03.499Z,4228.00
2019-06-26T00:53:03.499Z,4092.00
2019-06-26T00:54:03.495Z,3948.00
2019-06-26T00:55:03.484Z,3888.00
2019-06-26T00:56:03.483Z,3804.00
2019-06-26T00:57:03.472Z,3832.00
2019-06-26T00:58:03.480Z,3976.00
2019-06-26T00:59:03.455Z,4044.00
2019-06-26T01:00:03.486Z,4024.00
2019-06-26T01:01:03.444Z,4000.00
2019-06-26T01:02:03.444Z,4156.00
2019-06-26T01:03:03.431Z,4424.00
2019-06-26T01:04:03.575Z,4736.00
2019-06-26T01:05:03.420Z,5020.00
2019-06-26T01:06:03.415Z,5336.00
2019-06-26T01:07:03.403Z,5464.00
2019-06-26T01:08:03.403Z,5348.00
2019-06-26T01:09:03.395Z,5148.00
2019-06-26T01:10:03.386Z,4920.00
2019-06-26T01:11:03.383Z,4580.00
2019-06-26T01:12:03.375Z,4296.00
2019-06-26T01:13:03.389Z,4056.00
2019-06-26T01:14:03.362Z,3744.00
2019-06-26T01:15:03.368Z,3464.00
2019-06-26T01:16:03.347Z,3368.00
2019-06-26T01:17:03.343Z,3244.00
2019-06-26T01:18:03.346Z,3184.00
2019-06-26T01:19:03.330Z,3188.00
2019-06-26T01:20:03.346Z,3204.00
2019-06-26T01:21:03.309Z,3204.00
2019-06-26T01:22:03.495Z,3184.00
2019-06-26T01:23:03.299Z,3180.00
2019-06-26T01:24:03.374Z,3156.00
2019-06-26T01:25:03.297Z,3192.00
2019-06-26T01:26:03.293Z,3352.00
2019-06-26T01:27:03.291Z,3624.00
2019-06-26T01:28:03.272Z,3980.00
2019-06-26T01:29:03.258Z,4288.00
2019-06-26T01:30:03.602Z,4552.00
2019-06-26T01:31:03.257Z,4916.00
2019-06-26T01:32:03.247Z,5220.00
2019-06-26T01:33:03.261Z,5656.00
2019-06-26T01:34:03.231Z,5976.00
2019-06-26T01:35:03.223Z,6220.00
2019-06-26T01:36:03.215Z,6408.00
2019-06-26T01:37:03.210Z,6556.00
2019-06-26T01:38:03.206Z,6616.00
2019-06-26T01:39:03.239Z,6704.00
2019-06-26T01:40:03.184Z,6724.00
2019-06-26T01:41:03.185Z,6720.00
2019-06-26T01:42:03.173Z,6640.00
2019-06-26T01:43:03.165Z,6568.00
2019-06-26T01:44:14.216Z,6540.00
2019-06-26T01:45:03.151Z,6488.00
2019-06-26T01:46:03.144Z,6440.00
2019-06-26T01:47:03.152Z,6448.00
2019-06-26T01:48:03.151Z,6464.00
2019-06-26T01:49:03.125Z,6344.00
2019-06-26T01:50:03.125Z,6304.00
2019-06-26T01:51:03.120Z,6296.00
2019-06-26T01:52:03.113Z,6300.00
2019-06-26T01:53:03.100Z,6248.00
2019-06-26T01:54:03.091Z,6204.00
2019-06-26T01:55:03.086Z,6104.00
2019-06-26T01:56:03.086Z,6036.00
2019-06-26T01:57:03.099Z,6008.00
2019-06-26T01:58:03.063Z,5968.00
2019-06-26T01:59:03.064Z,5888.00
2019-06-26T02:00:03.061Z,5852.00
2019-06-26T02:01:03.119Z,5800.00
2019-06-26T02:02:03.036Z,5740.00
2019-06-26T02:03:03.029Z,5700.00
2019-06-26T02:04:03.028Z,5616.00
2019-06-26T02:05:03.018Z,5568.00
2019-06-26T02:06:03.013Z,5524.00
2019-06-26T02:07:03.004Z,5460.00
2019-06-26T02:08:02.997Z,5424.00
2019-06-26T02:09:02.999Z,5328.00
2019-06-26T02:10:02.989Z,5252.00
2019-06-26T02:11:02.978Z,5232.00
2019-06-26T02:12:02.972Z,5148.00
2019-06-26T02:13:02.956Z,5104.00
2019-06-26T02:14:02.957Z,5104.00
2019-06-26T02:15:02.962Z,5060.00
2019-06-26T02:16:02.952Z,5004.00
2019-06-26T02:17:02.944Z,4616.00
2019-06-26T02:18:02.953Z,4936.00
2019-06-26T02:19:02.926Z,4868.00
2019-06-26T02:20:02.922Z,4804.00
2019-06-26T02:21:02.922Z,4812.00
2019-06-26T02:22:02.906Z,4756.00
2019-06-26T02:23:02.913Z,4700.00
2019-06-26T02:24:02.936Z,4636.00
2019-06-26T02:25:02.882Z,4632.00
2019-06-26T02:26:02.970Z,4540.00
2019-06-26T02:27:02.877Z,4460.00
2019-06-26T02:28:03.053Z,4456.00
2019-06-26T02:29:02.856Z,4440.00
2019-06-26T02:30:02.860Z,4380.00
2019-06-26T02:31:02.848Z,4284.00
2019-06-26T02:32:02.858Z,4196.00
2019-06-26T02:33:02.832Z,4148.00
2019-06-26T02:34:02.923Z,4148.00
2019-06-26T02:35:02.817Z,4104.00
2019-06-26T02:36:03.272Z,4088.00
2019-06-26T02:37:02.805Z,4088.00
2019-06-26T02:38:02.790Z,4056.00
2019-06-26T02:39:02.807Z,4052.00
2019-06-26T02:40:02.782Z,4068.00
2019-06-26T02:42:02.773Z,4064.00
2019-06-26T02:43:06.767Z,4016.00
2019-06-26T02:44:02.768Z,4020.00
2019-06-26T02:45:02.752Z,3892.00
2019-06-26T02:46:02.775Z,4112.00
2019-06-26T02:47:18.688Z,3896.00
2019-06-26T02:48:02.734Z,3988.00
2019-06-26T02:49:02.724Z,3912.00
2019-06-26T02:50:02.709Z,3968.00
2019-06-26T02:51:02.702Z,3476.00
2019-06-26T02:52:02.697Z,3916.00
2019-06-26T02:53:02.701Z,4000.00
2019-06-26T02:54:02.696Z,3944.00
2019-06-26T02:55:02.685Z,4288.00
2019-06-26T02:56:02.679Z,4604.00
2019-06-26T02:57:02.664Z,4760.00
2019-06-26T02:58:02.662Z,4872.00
2019-06-26T02:59:02.656Z,5148.00
2019-06-26T03:00:02.815Z,5272.00
2019-06-26T03:01:02.633Z,5388.00
2019-06-26T03:02:02.641Z,5188.00
2019-06-26T03:03:02.629Z,5196.00
2019-06-26T03:04:02.624Z,5124.00
2019-06-26T03:05:02.838Z,4936.00
2019-06-26T03:06:02.607Z,4820.00
2019-06-26T03:07:02.604Z,4532.00
2019-06-26T03:08:02.601Z,4460.00
2019-06-26T03:09:02.587Z,3888.00
2019-06-26T03:10:02.582Z,4396.00
2019-06-26T03:11:02.564Z,4224.00
2019-06-26T03:12:02.565Z,4224.00
2019-06-26T03:13:03.343Z,4320.00
2019-06-26T03:14:02.550Z,3804.00
2019-06-26T03:15:08.955Z,3976.00
2019-06-26T03:16:02.541Z,4060.00
2019-06-26T03:17:02.533Z,4032.00
2019-06-26T03:18:02.520Z,4276.00
2019-06-26T03:19:02.511Z,4792.00
2019-06-26T03:20:02.525Z,4820.00
2019-06-26T03:21:02.495Z,4780.00
2019-06-26T03:22:02.497Z,4692.00
2019-06-26T03:23:02.515Z,4632.00
2019-06-26T03:24:02.486Z,4428.00
2019-06-26T03:25:02.479Z,4288.00
2019-06-26T03:26:02.475Z,4160.00
2019-06-26T03:27:02.462Z,4184.00
2019-06-26T03:28:02.461Z,4276.00
2019-06-26T03:29:02.450Z,4264.00
2019-06-26T03:30:02.463Z,4368.00
2019-06-26T03:31:02.438Z,4224.00
2019-06-26T03:32:02.443Z,4172.00
2019-06-26T03:33:02.426Z,4220.00
2019-06-26T03:34:02.421Z,4256.00
2019-06-26T03:35:02.408Z,4452.00
2019-06-26T03:36:02.395Z,4380.00
2019-06-26T03:37:02.398Z,4108.00
2019-06-26T03:38:02.386Z,3960.00
2019-06-26T03:39:02.389Z,3532.00
2019-06-26T03:40:02.374Z,3376.00
2019-06-26T03:41:02.372Z,3360.00
2019-06-26T03:42:02.396Z,3412.00
2019-06-26T03:43:02.354Z,3504.00
2019-06-26T03:44:02.341Z,3536.00
2019-06-26T03:45:02.347Z,3732.00
2019-06-26T03:46:02.331Z,3864.00
2019-06-26T03:47:02.320Z,3880.00
2019-06-26T03:48:02.323Z,3896.00
2019-06-26T03:49:02.308Z,4036.00
2019-06-26T03:50:02.816Z,3892.00
2019-06-26T03:51:02.377Z,3888.00
2019-06-26T03:52:02.291Z,3652.00
2019-06-26T03:53:02.290Z,3464.00
2019-06-26T03:54:02.278Z,3460.00
2019-06-26T03:55:02.273Z,3544.00
2019-06-26T03:56:02.271Z,3356.00
2019-06-26T03:57:02.247Z,3356.00
2019-06-26T03:58:02.243Z,3508.00
2019-06-26T03:59:02.295Z,3596.00
2019-06-26T04:00:02.237Z,3720.00
2019-06-26T04:01:02.247Z,3908.00
2019-06-26T04:02:02.225Z,4040.00
2019-06-26T04:03:02.264Z,4112.00
2019-06-26T04:04:02.210Z,4200.00
2019-06-26T04:05:02.200Z,4020.00
2019-06-26T04:06:02.194Z,3840.00
2019-06-26T04:07:02.190Z,3592.00
2019-06-26T04:08:02.174Z,3704.00
2019-06-26T04:09:02.178Z,3732.00
2019-06-26T04:10:02.170Z,3376.00
2019-06-26T04:11:02.178Z,3208.00
2019-06-26T04:12:02.169Z,3140.00
2019-06-26T04:14:02.153Z,2952.00
2019-06-26T04:15:02.134Z,2968.00
2019-06-26T04:16:02.126Z,3136.00
2019-06-26T04:17:02.328Z,3584.00
2019-06-26T04:18:02.112Z,3964.00
2019-06-26T04:19:02.098Z,4400.00
2019-06-26T04:20:02.094Z,4276.00
2019-06-26T04:21:02.090Z,4264.00
2019-06-26T04:22:02.074Z,4316.00
2019-06-26T04:23:02.072Z,4444.00
2019-06-26T04:24:02.067Z,4288.00
2019-06-26T04:25:02.062Z,4144.00
2019-06-26T04:26:02.054Z,4568.00
2019-06-26T04:27:02.045Z,4612.00
2019-06-26T04:28:02.134Z,4720.00
2019-06-26T04:29:02.031Z,4592.00
2019-06-26T04:30:02.022Z,4516.00
2019-06-26T04:31:02.016Z,3948.00
2019-06-26T04:32:02.007Z,3768.00
2019-06-26T04:33:02.048Z,3664.00
2019-06-26T04:35:01.993Z,3724.00
2019-06-26T04:36:01.973Z,3660.00
2019-06-26T04:37:01.978Z,3848.00
2019-06-26T04:38:01.967Z,3812.00
2019-06-26T04:39:01.964Z,3672.00
2019-06-26T04:40:01.949Z,3380.00
2019-06-26T04:41:01.944Z,3232.00
2019-06-26T04:42:01.939Z,3192.00
2019-06-26T04:43:01.931Z,3296.00
2019-06-26T04:44:01.941Z,3444.00
2019-06-26T04:45:01.911Z,3640.00
2019-06-26T04:46:01.927Z,3728.00
2019-06-26T04:47:01.905Z,3656.00
2019-06-26T04:48:01.989Z,3648.00
2019-06-26T04:49:01.888Z,3568.00
2019-06-26T04:50:01.885Z,3432.00
2019-06-26T04:51:01.875Z,3172.00
2019-06-26T04:52:01.857Z,2980.00
2019-06-26T04:53:01.854Z,2696.00
2019-06-26T04:54:01.851Z,2348.00
2019-06-26T04:55:01.848Z,2064.00
2019-06-26T04:56:01.838Z,1884.00
2019-06-26T04:57:01.829Z,1852.00
2019-06-26T04:58:01.825Z,1784.00
2019-06-26T04:59:01.818Z,1624.00
2019-06-26T05:00:01.820Z,1500.00
2019-06-26T05:01:01.797Z,1448.00
2019-06-26T05:02:01.790Z,1424.00
2019-06-26T05:03:01.782Z,1420.00
2019-06-26T05:04:01.826Z,1428.00
2019-06-26T05:05:01.807Z,1356.00
2019-06-26T05:06:01.764Z,1348.00
2019-06-26T05:07:01.750Z,1380.00
2019-06-26T05:08:01.752Z,1420.00
2019-06-26T05:09:01.740Z,1504.00
2019-06-26T05:10:01.725Z,1500.00
2019-06-26T05:11:01.727Z,1452.00
2019-06-26T05:12:01.733Z,1368.00
2019-06-26T05:13:01.716Z,1296.00
2019-06-26T05:14:01.709Z,1236.00
2019-06-26T05:15:01.699Z,1200.00
2019-06-26T05:16:14.369Z,1196.00
2019-06-26T05:17:01.696Z,1164.00
2019-06-26T05:18:01.683Z,1148.00
2019-06-26T05:19:01.666Z,1120.00
2019-06-26T05:20:01.661Z,1080.00
2019-06-26T05:21:01.657Z,1080.00
2019-06-26T05:22:01.650Z,1108.00
2019-06-26T05:23:01.647Z,1172.00
2019-06-26T05:24:01.629Z,1152.00
2019-06-26T05:25:01.632Z,1144.00
2019-06-26T05:26:01.620Z,1124.00
2019-06-26T05:27:02.157Z,1096.00
2019-06-26T05:28:01.600Z,1076.00
2019-06-26T05:29:01.613Z,1060.00
2019-06-26T05:30:01.595Z,1016.00
2019-06-26T05:31:02.719Z,992.00
2019-06-26T05:32:01.571Z,980.00
2019-06-26T05:33:01.592Z,964.00
2019-06-26T05:34:01.569Z,952.00
2019-06-26T05:35:01.547Z,960.00
2019-06-26T05:36:01.541Z,948.00
2019-06-26T05:37:01.547Z,920.00
2019-06-26T05:38:01.528Z,920.00
2019-06-26T05:39:01.526Z,916.00
2019-06-26T05:40:01.507Z,916.00
2019-06-26T05:41:01.508Z,920.00
2019-06-26T05:42:01.510Z,912.00
2019-06-26T05:43:01.552Z,904.00
2019-06-26T05:44:01.488Z,900.00
2019-06-26T05:45:01.496Z,892.00
2019-06-26T05:46:01.472Z,884.00
2019-06-26T05:47:01.475Z,872.00
2019-06-26T05:49:01.471Z,864.00
2019-06-26T05:50:01.441Z,852.00
2019-06-26T05:51:01.429Z,844.00
2019-06-26T05:52:02.290Z,844.00
2019-06-26T05:53:01.408Z,816.00
2019-06-26T05:54:01.404Z,816.00
2019-06-26T05:55:01.398Z,816.00
2019-06-26T05:56:01.399Z,812.00
2019-06-26T05:57:01.385Z,800.00
2019-06-26T05:58:01.373Z,800.00
2019-06-26T05:59:01.365Z,796.00
2019-06-26T06:00:01.363Z,792.00
2019-06-26T06:01:01.349Z,792.00
2019-06-26T06:02:01.343Z,800.00
2019-06-26T06:03:01.337Z,792.00
2019-06-26T06:06:01.305Z,784.00
2019-06-26T06:07:01.329Z,788.00
2019-06-26T06:09:01.284Z,776.00
2019-06-26T06:10:01.284Z,784.00
2019-06-26T06:11:01.278Z,780.00
2019-06-26T06:12:01.264Z,768.00
2019-06-26T06:13:01.278Z,776.00
2019-06-26T06:14:01.260Z,780.00
2019-06-26T06:16:46.429Z,812.00
2019-06-26T06:17:32.276Z,832.00
2019-06-26T06:19:24.636Z,824.00
2019-06-26T06:20:24.607Z,820.00
2019-06-26T06:22:17.183Z,828.00
2019-06-26T06:23:16.934Z,816.00
2019-06-26T06:25:09.381Z,788.00
2019-06-26T06:26:09.260Z,768.00
2019-06-26T06:28:02.963Z,772.00
2019-06-26T06:29:01.600Z,772.00
2019-06-26T06:30:53.933Z,772.00
2019-06-26T06:31:53.929Z,776.00
2019-06-26T06:33:48.558Z,760.00
2019-06-26T06:34:46.261Z,752.00
2019-06-26T06:36:38.601Z,748.00
2019-06-26T06:37:38.959Z,764.00
2019-06-26T06:39:31.170Z,744.00
2019-06-26T06:40:30.929Z,740.00
2019-06-26T06:42:23.732Z,732.00
2019-06-26T06:43:23.628Z,740.00
2019-06-26T06:45:15.352Z,744.00
2019-06-26T06:46:15.133Z,740.00
2019-06-26T06:48:07.471Z,740.00
2019-06-26T06:49:07.827Z,748.00
2019-06-26T06:50:59.991Z,732.00
2019-06-26T06:51:59.788Z,732.00
2019-06-26T06:53:51.655Z,728.00
2019-06-26T06:54:51.635Z,728.00
2019-06-26T06:56:44.203Z,676.00
2019-06-26T06:57:43.980Z,676.00
2019-06-26T06:59:36.328Z,668.00
2019-06-26T07:00:36.303Z,676.00
2019-06-26T07:02:28.881Z,680.00
2019-06-26T07:03:29.008Z,672.00
2019-06-26T07:05:21.854Z,676.00
2019-06-26T07:06:21.488Z,684.00
2019-06-26T07:08:14.368Z,772.00
2019-06-26T07:09:13.819Z,788.00
2019-06-26T07:11:06.155Z,688.00
2019-06-26T07:12:06.150Z,680.00
2019-06-26T07:13:58.764Z,676.00
2019-06-26T07:14:58.507Z,680.00
2019-06-26T07:16:50.821Z,680.00
2019-06-26T07:17:50.802Z,680.00
2019-06-26T07:19:44.006Z,672.00
2019-06-26T07:20:44.713Z,668.00
2019-06-26T07:22:35.484Z,668.00
2019-06-26T07:23:35.940Z,672.00
2019-06-26T07:25:28.660Z,660.00
2019-06-26T07:26:27.789Z,660.00
2019-06-26T07:28:20.160Z,664.00
2019-06-26T07:29:20.132Z,668.00
2019-06-26T07:31:12.696Z,668.00
2019-06-26T07:32:12.464Z,676.00
2019-06-26T07:34:04.816Z,664.00
2019-06-26T07:35:04.805Z,656.00
2019-06-26T07:36:57.451Z,660.00
2019-06-26T07:38:00.117Z,668.00
2019-06-26T07:39:49.527Z,660.00
2019-06-26T07:40:49.816Z,660.00
2019-06-26T07:41:49.504Z,664.00
2019-06-26T07:42:49.511Z,656.00
2019-06-26T07:43:49.493Z,656.00
2019-06-26T07:44:49.494Z,652.00
2019-06-26T07:45:49.486Z,648.00
2019-06-26T07:46:49.464Z,656.00
2019-06-26T07:47:49.460Z,652.00
2019-06-26T07:48:49.465Z,648.00
2019-06-26T07:49:49.441Z,644.00
2019-06-26T07:50:49.430Z,644.00
2019-06-26T07:51:49.435Z,640.00
2019-06-26T07:52:49.476Z,644.00
2019-06-26T08:10:30.720Z,632.00
2019-06-26T08:11:30.425Z,640.00
2019-06-26T08:13:23.775Z,636.00
2019-06-26T08:14:23.768Z,644.00
2019-06-26T08:16:17.345Z,652.00
2019-06-26T08:17:17.111Z,648.00
2019-06-26T08:19:10.471Z,652.00
2019-06-26T08:20:10.465Z,796.00
2019-06-26T08:22:02.986Z,780.00
2019-06-26T08:23:02.816Z,716.00
2019-06-26T08:24:55.131Z,744.00
2019-06-26T08:25:55.114Z,776.00
2019-06-26T08:27:47.681Z,720.00
2019-06-26T08:28:47.500Z,704.00
2019-06-26T08:30:39.811Z,680.00
2019-06-26T08:31:39.771Z,684.00
2019-06-26T08:33:32.920Z,840.00
2019-06-26T08:34:32.106Z,1000.00
2019-06-26T08:36:24.449Z,1260.00
2019-06-26T08:37:24.448Z,1332.00
2019-06-26T08:39:17.009Z,1364.00
2019-06-26T08:40:16.777Z,1316.00
2019-06-26T08:42:09.129Z,1376.00
2019-06-26T08:43:09.111Z,1536.00
2019-06-26T08:45:01.685Z,1748.00
2019-06-26T08:46:01.473Z,1856.00
2019-06-26T08:47:53.772Z,2040.00
2019-06-26T08:48:53.763Z,2120.00
2019-06-26T08:50:46.310Z,2148.00
2019-06-26T08:51:46.088Z,2136.00
2019-06-26T08:53:38.454Z,2220.00
2019-06-26T08:54:38.466Z,2272.00
2019-06-26T08:56:30.880Z,2316.00
2019-06-26T08:57:30.773Z,2256.00
2019-06-26T08:59:23.104Z,2080.00
2019-06-26T09:00:23.102Z,2000.00
2019-06-26T09:02:15.649Z,1980.00
2019-06-26T09:03:15.417Z,1976.00
2019-06-26T09:05:07.761Z,2024.00
2019-06-26T09:06:07.755Z,2132.00
2019-06-26T09:08:00.981Z,2220.00
2019-06-26T09:09:00.612Z,2212.00
2019-06-26T09:10:52.964Z,2184.00
2019-06-26T09:11:52.948Z,2108.00
2019-06-26T09:13:45.507Z,2024.00
2019-06-26T09:14:45.288Z,2016.00
2019-06-26T09:16:37.640Z,2080.00
2019-06-26T09:17:37.634Z,2120.00
2019-06-26T09:19:30.184Z,2144.00
2019-06-26T09:20:29.963Z,2100.00
2019-06-26T09:22:22.300Z,1904.00
2019-06-26T09:23:22.277Z,1904.00
2019-06-26T09:25:21.987Z,2240.00
2019-06-26T09:26:14.614Z,2220.00
2019-06-26T09:28:06.961Z,1964.00
2019-06-26T09:29:06.938Z,1984.00
2019-06-26T09:31:00.083Z,1924.00
2019-06-26T09:31:59.271Z,1956.00
2019-06-26T09:33:51.616Z,2112.00
2019-06-26T09:34:51.608Z,2092.00
2019-06-26T09:36:44.174Z,2052.00
2019-06-26T09:37:43.965Z,2044.00
2019-06-26T09:39:36.296Z,2048.00
2019-06-26T09:40:36.289Z,2024.00
2019-06-26T09:42:28.817Z,1940.00
2019-06-26T09:43:28.614Z,1680.00
2019-06-26T09:45:21.962Z,1532.00
2019-06-26T09:46:21.956Z,1424.00
2019-06-26T09:48:14.511Z,1284.00
2019-06-26T09:49:14.285Z,1212.00
2019-06-26T09:51:07.006Z,968.00
2019-06-26T09:52:07.013Z,988.00
2019-06-26T09:54:00.566Z,1004.00
2019-06-26T09:55:00.339Z,940.00
2019-06-26T09:56:53.695Z,764.00
2019-06-26T09:57:53.678Z,708.00
2019-06-26T09:59:46.220Z,688.00
2019-06-26T10:00:46.019Z,708.00
2019-06-26T10:02:39.597Z,800.00
2019-06-26T10:03:39.347Z,836.00
2019-06-26T10:05:32.903Z,796.00
2019-06-26T10:06:32.692Z,780.00
2019-06-26T10:08:24.571Z,812.00
2019-06-26T10:09:24.542Z,856.00
2019-06-26T10:11:18.126Z,1044.00
2019-06-26T10:12:17.909Z,1124.00
2019-06-26T10:14:11.271Z,1152.00
2019-06-26T10:15:11.265Z,1132.00
2019-06-26T10:17:04.834Z,1080.00
2019-06-26T10:18:04.604Z,1060.00
2019-06-26T10:19:56.952Z,1000.00
2019-06-26T10:20:56.931Z,968.00
2019-06-26T10:22:49.828Z,952.00
2019-06-26T10:23:49.628Z,960.00
2019-06-26T10:25:42.977Z,952.00
2019-06-26T10:26:42.974Z,936.00
2019-06-26T10:28:36.557Z,876.00
2019-06-26T10:29:36.309Z,840.00
2019-06-26T10:31:29.665Z,804.00
2019-06-26T10:32:29.653Z,792.00
2019-06-26T10:34:23.097Z,732.00
2019-06-26T10:35:22.994Z,672.00
2019-06-26T10:37:16.346Z,592.00
2019-06-26T10:38:16.335Z,564.00
2019-06-26T10:40:09.911Z,512.00
2019-06-26T10:41:09.694Z,500.00
2019-06-26T10:43:03.035Z,472.00
2019-06-26T10:44:03.063Z,488.00
2019-06-26T10:45:56.599Z,564.00
2019-06-26T10:46:56.366Z,592.00
2019-06-26T10:48:49.730Z,604.00
2019-06-26T10:49:49.709Z,596.00
2019-06-26T10:51:43.288Z,540.00
2019-06-26T10:52:43.059Z,484.00
2019-06-26T10:54:36.411Z,420.00
2019-06-26T10:55:36.394Z,424.00
2019-06-26T10:57:29.971Z,448.00
2019-06-26T10:58:29.736Z,452.00
2019-06-26T11:00:22.474Z,468.00
2019-06-26T11:01:22.458Z,480.00
2019-06-26T11:03:16.030Z,528.00
2019-06-26T11:04:15.805Z,548.00
2019-06-26T11:06:09.167Z,540.00
2019-06-26T11:07:09.144Z,560.00
2019-06-26T11:09:03.218Z,576.00
2019-06-26T11:10:03.012Z,560.00
2019-06-26T11:11:56.386Z,520.00
2019-06-26T11:12:56.364Z,488.00
2019-06-26T11:14:49.936Z,436.00
2019-06-26T11:15:49.709Z,420.00
2019-06-26T11:17:43.085Z,396.00
2019-06-26T11:18:43.047Z,384.00
2019-06-26T11:20:36.616Z,344.00
2019-06-26T11:21:36.388Z,324.00
2019-06-26T11:23:29.748Z,292.00
2019-06-26T11:24:29.737Z,292.00
2019-06-26T11:26:23.278Z,284.00
2019-06-26T11:27:23.079Z,268.00
2019-06-26T11:29:16.434Z,236.00
2019-06-26T11:30:16.417Z,220.00
2019-06-26T11:32:09.871Z,192.00
2019-06-26T11:33:09.774Z,180.00
2019-06-26T11:35:03.121Z,168.00
2019-06-26T11:36:03.104Z,160.00
2019-06-26T11:37:56.692Z,144.00
2019-06-26T11:38:56.443Z,136.00
2019-06-26T11:40:49.800Z,128.00
2019-06-26T11:41:49.785Z,124.00
2019-06-26T11:43:43.360Z,116.00
2019-06-26T11:44:43.127Z,108.00
2019-06-26T11:46:37.151Z,104.00
2019-06-26T11:47:36.662Z,104.00
2019-06-26T11:49:30.205Z,132.00
2019-06-26T11:50:29.981Z,144.00
2019-06-26T11:52:23.350Z,176.00
2019-06-26T11:53:23.333Z,184.00
2019-06-26T11:55:16.896Z,192.00
2019-06-26T11:56:16.703Z,196.00
2019-06-26T11:58:10.038Z,196.00
2019-06-26T11:59:10.021Z,196.00
2019-06-26T12:01:03.562Z,184.00
2019-06-26T12:02:03.352Z,188.00
2019-06-26T12:03:56.713Z,176.00
2019-06-26T12:04:56.697Z,172.00
2019-06-26T12:06:50.162Z,168.00
2019-06-26T12:07:50.032Z,164.00
2019-06-26T12:09:43.424Z,152.00
2019-06-26T12:10:43.376Z,148.00
2019-06-26T12:12:36.343Z,136.00
2019-06-26T12:13:36.114Z,128.00
2019-06-26T12:15:29.479Z,128.00
2019-06-26T12:16:29.478Z,128.00
2019-06-26T12:18:22.034Z,132.00
2019-06-26T12:19:23.524Z,132.00
2019-06-26T12:21:14.277Z,132.00
2019-06-26T12:22:14.268Z,132.00
2019-06-26T12:24:08.213Z,128.00
2019-06-26T12:25:07.991Z,116.00
2019-06-26T12:27:01.343Z,100.00
2019-06-26T12:28:01.337Z,88.00
2019-06-26T12:29:54.900Z,72.00
2019-06-26T12:30:54.672Z,64.00
2019-06-26T12:33:02.212Z,60.00
2019-06-26T12:33:48.015Z,56.00
2019-06-26T12:35:41.628Z,56.00
2019-06-26T12:36:41.356Z,56.00
2019-06-26T12:38:34.750Z,56.00
2019-06-26T12:39:34.711Z,52.00
2019-06-26T12:41:28.270Z,52.00
2019-06-26T12:42:28.048Z,48.00
2019-06-26T12:44:20.855Z,44.00
2019-06-26T12:45:20.797Z,44.00
2019-06-26T12:47:14.362Z,36.00
2019-06-26T12:48:16.327Z,36.00
2019-06-26T12:50:07.671Z,32.00
2019-06-26T12:51:07.472Z,28.00
2019-06-26T12:53:01.021Z,28.00
2019-06-26T12:54:00.815Z,24.00
2019-06-26T12:55:54.165Z,20.00
2019-06-26T12:56:54.145Z,20.00
2019-06-26T12:58:46.712Z,20.00
2019-06-26T12:59:56.503Z,16.00
2019-06-26T13:01:39.175Z,12.00
2019-06-26T13:02:39.158Z,12.00
2019-06-26T13:04:32.735Z,12.00
2019-06-26T13:05:32.503Z,8.00
2019-06-26T13:07:25.865Z,8.00
2019-06-26T13:08:25.854Z,4.00
2019-06-26T13:10:19.947Z,8.00
2019-06-26T13:11:19.713Z,4.00
2019-06-26T13:13:13.070Z,4.00
2019-06-26T13:14:13.061Z,0.00
2019-06-26T13:16:06.647Z,4.00
2019-06-26T13:17:06.397Z,4.00
2019-06-26T13:18:59.788Z,0.00
2019-06-26T13:19:59.754Z,0.00
2019-06-26T13:21:53.321Z,0.00
2019-06-26T13:22:53.128Z,0.00
2019-06-26T13:24:46.461Z,0.00
2019-06-26T13:25:46.434Z,0.00
2019-06-26T13:27:40.014Z,0.00
2019-06-26T13:28:39.767Z,0.00
2019-06-26T13:30:33.130Z,0.00
2019-06-26T13:31:33.117Z,0.00
2019-06-26T13:33:26.560Z,0.00
2019-06-26T13:34:26.454Z,0.00
2019-06-26T13:36:19.821Z,0.00
2019-06-26T13:37:19.796Z,0.00
2019-06-26T13:39:12.432Z,0.00
2019-06-26T13:40:12.138Z,0.00
2019-06-26T13:42:05.495Z,0.00
2019-06-26T13:43:05.476Z,0.00
2019-06-26T13:44:58.394Z,0.00
2019-06-26T13:45:58.974Z,0.00
2019-06-26T13:47:51.533Z,0.00
2019-06-26T13:48:51.508Z,0.00
2019-06-26T13:50:44.969Z,0.00
2019-06-26T13:51:44.857Z,0.00
2019-06-26T13:53:37.192Z,0.00
2019-06-26T13:54:37.184Z,0.00
2019-06-26T13:56:29.736Z,0.00
2019-06-26T13:57:29.507Z,0.00
2019-06-26T13:59:22.858Z,0.00
2019-06-26T14:00:22.873Z,0.00
2019-06-26T14:02:19.729Z,0.00
2019-06-26T14:03:16.198Z,0.00
2019-06-26T14:05:09.545Z,0.00
2019-06-26T14:06:09.544Z,0.00
2019-06-26T14:08:03.115Z,0.00
2019-06-26T14:09:02.885Z,0.00
2019-06-26T14:10:56.234Z,0.00
2019-06-26T14:11:56.217Z,0.00
2019-06-26T14:13:49.791Z,0.00
2019-06-26T14:14:57.360Z,0.00
2019-06-26T14:16:42.904Z,0.00
2019-06-26T14:17:42.896Z,0.00
2019-06-26T14:19:36.456Z,0.00
2019-06-26T14:20:36.240Z,0.00
2019-06-26T14:22:28.931Z,0.00
2019-06-26T14:23:28.933Z,0.00
2019-06-26T14:25:22.492Z,0.00
2019-06-26T14:26:22.267Z,0.00
2019-06-26T14:28:15.619Z,0.00
2019-06-26T14:29:20.723Z,0.00
2019-06-26T14:31:09.067Z,0.00
2019-06-26T14:32:08.951Z,0.00
2019-06-26T14:34:02.309Z,0.00
2019-06-26T14:35:02.298Z,0.00
2019-06-26T14:36:55.881Z,0.00
2019-06-26T14:37:55.651Z,0.00
2019-06-26T14:39:48.994Z,0.00
2019-06-26T14:40:48.984Z,0.00
2019-06-26T14:42:41.423Z,0.00
2019-06-26T14:43:41.302Z,0.00
2019-06-26T14:45:34.656Z,0.00
2019-06-26T14:46:34.652Z,0.00
2019-06-26T14:48:28.238Z,0.00
2019-06-26T14:49:28.019Z,0.00
2019-06-26T14:51:21.348Z,0.00
2019-06-26T14:52:21.333Z,0.00
2019-06-26T14:54:14.890Z,0.00
2019-06-26T14:55:14.689Z,0.00
2019-06-26T14:57:08.040Z,0.00
2019-06-26T14:58:08.036Z,0.00
2019-06-26T15:00:01.576Z,0.00
2019-06-26T15:01:01.371Z,0.00
2019-06-26T15:02:54.721Z,0.00
2019-06-26T15:03:54.719Z,0.00
2019-06-26T15:05:48.277Z,0.00
2019-06-26T15:06:48.053Z,0.00
2019-06-26T15:08:41.423Z,0.00
2019-06-26T15:09:41.389Z,0.00
2019-06-26T15:11:35.502Z,0.00
2019-06-26T15:12:35.270Z,0.00
2019-06-26T15:14:28.623Z,0.00
2019-06-26T15:15:28.617Z,0.00
2019-06-26T15:17:22.193Z,0.00
2019-06-26T15:18:21.948Z,0.00
2019-06-26T15:20:14.296Z,0.00
2019-06-26T15:21:14.275Z,0.00
2019-06-26T15:23:07.730Z,0.00
2019-06-26T15:24:07.626Z,0.00
2019-06-26T15:26:00.970Z,0.00